sensor_id;sensor_type;location;lat;lon;timestamp;P1;durP1;ratioP1;P2;durP2;ratioP2
15635;SDS011;7917;50.818;6.972;2023-06-22T00:01:33;8.52;;;5.63;;
15635;SDS011;7917;50.818;6.972;2023-06-22T00:04:00;8.68;;;5.97;;
15635;SDS011;7917;50.818;6.972;2023-06-22T00:06:27;7.28;;;5.43;;
15635;SDS011;7917;50.818;6.972;2023-06-22T00:08:54;7.13;;;5.82;;
15635;SDS011;7917;50.818;6.972;2023-06-22T00:11:21;7.22;;;5.55;;
15635;SDS011;7917;50.818;6.972;2023-06-22T00:13:49;8.15;;;5.60;;
15635;SDS011;7917;50.818;6.972;2023-06-22T00:16:16;7.32;;;5.80;;
15635;SDS011;7917;50.818;6.972;2023-06-22T00:18:43;6.78;;;5.88;;
15635;SDS011;7917;50.818;6.972;2023-06-22T00:21:12;8.02;;;5.97;;
15635;SDS011;7917;50.818;6.972;2023-06-22T00:23:39;6.35;;;5.75;;
15635;SDS011;7917;50.818;6.972;2023-06-22T00:26:06;8.05;;;5.85;;
15635;SDS011;7917;50.818;6.972;2023-06-22T00:28:33;8.00;;;6.30;;
15635;SDS011;7917;50.818;6.972;2023-06-22T00:31:01;6.45;;;5.85;;
15635;SDS011;7917;50.818;6.972;2023-06-22T00:33:28;7.50;;;6.53;;
15635;SDS011;7917;50.818;6.972;2023-06-22T00:35:55;10.65;;;5.72;;
15635;SDS011;7917;50.818;6.972;2023-06-22T00:38:21;6.55;;;5.95;;
15635;SDS011;7917;50.818;6.972;2023-06-22T00:40:51;6.80;;;6.15;;
15635;SDS011;7917;50.818;6.972;2023-06-22T00:43:18;7.68;;;6.43;;
15635;SDS011;7917;50.818;6.972;2023-06-22T00:45:45;10.35;;;6.20;;
15635;SDS011;7917;50.818;6.972;2023-06-22T00:48:13;7.75;;;6.65;;
15635;SDS011;7917;50.818;6.972;2023-06-22T00:50:40;6.82;;;5.85;;
15635;SDS011;7917;50.818;6.972;2023-06-22T00:53:07;7.20;;;6.50;;
15635;SDS011;7917;50.818;6.972;2023-06-22T00:55:36;8.23;;;6.65;;
15635;SDS011;7917;50.818;6.972;2023-06-22T00:58:04;6.93;;;6.22;;
15635;SDS011;7917;50.818;6.972;2023-06-22T01:00:33;7.05;;;6.35;;
15635;SDS011;7917;50.818;6.972;2023-06-22T01:03:01;7.15;;;6.45;;
15635;SDS011;7917;50.818;6.972;2023-06-22T01:05:29;6.90;;;6.30;;
15635;SDS011;7917;50.818;6.972;2023-06-22T01:08:00;7.38;;;6.55;;
15635;SDS011;7917;50.818;6.972;2023-06-22T01:10:39;7.93;;;6.68;;
15635;SDS011;7917;50.818;6.972;2023-06-22T01:13:12;7.68;;;6.20;;
15635;SDS011;7917;50.818;6.972;2023-06-22T01:15:44;8.23;;;6.63;;
15635;SDS011;7917;50.818;6.972;2023-06-22T01:18:15;8.30;;;7.50;;
15635;SDS011;7917;50.818;6.972;2023-06-22T01:20:45;8.88;;;6.55;;
15635;SDS011;7917;50.818;6.972;2023-06-22T01:23:16;7.30;;;6.40;;
15635;SDS011;7917;50.818;6.972;2023-06-22T01:25:54;8.95;;;6.80;;
15635;SDS011;7917;50.818;6.972;2023-06-22T01:28:36;8.50;;;6.90;;
15635;SDS011;7917;50.818;6.972;2023-06-22T01:31:12;8.27;;;6.60;;
15635;SDS011;7917;50.818;6.972;2023-06-22T01:33:43;10.07;;;6.78;;
15635;SDS011;7917;50.818;6.972;2023-06-22T01:36:11;8.43;;;6.93;;
15635;SDS011;7917;50.818;6.972;2023-06-22T01:38:40;7.15;;;6.45;;
15635;SDS011;7917;50.818;6.972;2023-06-22T01:41:09;7.95;;;6.80;;
15635;SDS011;7917;50.818;6.972;2023-06-22T01:43:37;7.28;;;6.63;;
15635;SDS011;7917;50.818;6.972;2023-06-22T01:46:04;7.93;;;7.13;;
15635;SDS011;7917;50.818;6.972;2023-06-22T01:48:35;7.65;;;6.90;;
15635;SDS011;7917;50.818;6.972;2023-06-22T01:51:02;7.88;;;7.03;;
15635;SDS011;7917;50.818;6.972;2023-06-22T01:53:29;7.40;;;6.70;;
15635;SDS011;7917;50.818;6.972;2023-06-22T01:55:55;7.63;;;6.90;;
15635;SDS011;7917;50.818;6.972;2023-06-22T01:58:23;7.25;;;6.55;;
15635;SDS011;7917;50.818;6.972;2023-06-22T02:01:00;8.00;;;6.75;;
15635;SDS011;7917;50.818;6.972;2023-06-22T02:03:35;9.70;;;6.80;;
15635;SDS011;7917;50.818;6.972;2023-06-22T02:06:08;7.72;;;6.43;;
15635;SDS011;7917;50.818;6.972;2023-06-22T02:08:41;8.52;;;7.20;;
15635;SDS011;7917;50.818;6.972;2023-06-22T02:11:13;8.40;;;6.68;;
15635;SDS011;7917;50.818;6.972;2023-06-22T02:13:42;8.27;;;7.13;;
15635;SDS011;7917;50.818;6.972;2023-06-22T02:16:11;10.48;;;6.60;;
15635;SDS011;7917;50.818;6.972;2023-06-22T02:18:39;9.75;;;6.63;;
15635;SDS011;7917;50.818;6.972;2023-06-22T02:21:11;7.07;;;6.38;;
15635;SDS011;7917;50.818;6.972;2023-06-22T02:23:41;7.68;;;6.78;;
15635;SDS011;7917;50.818;6.972;2023-06-22T02:26:07;7.20;;;6.45;;
15635;SDS011;7917;50.818;6.972;2023-06-22T02:28:35;9.82;;;6.90;;
15635;SDS011;7917;50.818;6.972;2023-06-22T02:31:01;6.90;;;6.30;;
15635;SDS011;7917;50.818;6.972;2023-06-22T02:33:29;7.00;;;6.40;;
15635;SDS011;7917;50.818;6.972;2023-06-22T02:35:56;7.47;;;6.75;;
15635;SDS011;7917;50.818;6.972;2023-06-22T02:38:23;8.10;;;6.18;;
15635;SDS011;7917;50.818;6.972;2023-06-22T02:40:50;9.05;;;7.07;;
15635;SDS011;7917;50.818;6.972;2023-06-22T02:43:16;7.75;;;6.95;;
15635;SDS011;7917;50.818;6.972;2023-06-22T02:45:43;8.23;;;7.10;;
15635;SDS011;7917;50.818;6.972;2023-06-22T02:48:10;7.28;;;6.57;;
15635;SDS011;7917;50.818;6.972;2023-06-22T02:50:39;8.02;;;6.57;;
15635;SDS011;7917;50.818;6.972;2023-06-22T02:53:06;7.85;;;7.05;;
15635;SDS011;7917;50.818;6.972;2023-06-22T02:55:33;7.30;;;6.60;;
15635;SDS011;7917;50.818;6.972;2023-06-22T02:57:59;7.97;;;7.18;;
15635;SDS011;7917;50.818;6.972;2023-06-22T03:03:49;8.00;;;7.30;;
15635;SDS011;7917;50.818;6.972;2023-06-22T03:06:16;10.70;;;7.80;;
15635;SDS011;7917;50.818;6.972;2023-06-22T03:08:48;8.88;;;7.65;;
15635;SDS011;7917;50.818;6.972;2023-06-22T03:11:15;8.65;;;7.60;;
15635;SDS011;7917;50.818;6.972;2023-06-22T03:13:42;9.00;;;8.05;;
15635;SDS011;7917;50.818;6.972;2023-06-22T03:16:08;9.15;;;7.93;;
15635;SDS011;7917;50.818;6.972;2023-06-22T03:18:36;9.65;;;7.65;;
15635;SDS011;7917;50.818;6.972;2023-06-22T03:21:03;9.57;;;7.75;;
15635;SDS011;7917;50.818;6.972;2023-06-22T03:23:33;13.25;;;7.45;;
15635;SDS011;7917;50.818;6.972;2023-06-22T03:26:00;11.75;;;7.63;;
15635;SDS011;7917;50.818;6.972;2023-06-22T03:28:27;10.68;;;8.05;;
15635;SDS011;7917;50.818;6.972;2023-06-22T03:30:56;11.18;;;7.32;;
15635;SDS011;7917;50.818;6.972;2023-06-22T03:33:24;8.80;;;7.95;;
15635;SDS011;7917;50.818;6.972;2023-06-22T03:35:52;7.93;;;7.13;;
15635;SDS011;7917;50.818;6.972;2023-06-22T03:38:19;9.15;;;6.60;;
15635;SDS011;7917;50.818;6.972;2023-06-22T03:40:47;8.35;;;7.38;;
15635;SDS011;7917;50.818;6.972;2023-06-22T03:43:13;11.82;;;7.82;;
15635;SDS011;7917;50.818;6.972;2023-06-22T03:45:40;10.00;;;7.60;;
15635;SDS011;7917;50.818;6.972;2023-06-22T03:48:10;10.70;;;8.02;;
15635;SDS011;7917;50.818;6.972;2023-06-22T03:50:37;9.85;;;7.40;;
15635;SDS011;7917;50.818;6.972;2023-06-22T03:53:06;9.73;;;8.75;;
15635;SDS011;7917;50.818;6.972;2023-06-22T03:55:33;12.70;;;8.45;;
15635;SDS011;7917;50.818;6.972;2023-06-22T03:58:01;10.48;;;8.32;;
15635;SDS011;7917;50.818;6.972;2023-06-22T04:00:31;10.60;;;7.75;;
15635;SDS011;7917;50.818;6.972;2023-06-22T04:02:58;14.20;;;9.73;;
15635;SDS011;7917;50.818;6.972;2023-06-22T04:05:24;8.55;;;7.65;;
15635;SDS011;7917;50.818;6.972;2023-06-22T04:07:54;14.07;;;8.10;;
15635;SDS011;7917;50.818;6.972;2023-06-22T04:10:21;10.63;;;8.57;;
15635;SDS011;7917;50.818;6.972;2023-06-22T04:12:47;11.75;;;8.50;;
15635;SDS011;7917;50.818;6.972;2023-06-22T04:15:15;13.07;;;8.73;;
15635;SDS011;7917;50.818;6.972;2023-06-22T04:17:41;12.30;;;8.02;;
15635;SDS011;7917;50.818;6.972;2023-06-22T04:20:11;8.93;;;7.82;;
15635;SDS011;7917;50.818;6.972;2023-06-22T04:22:38;10.40;;;8.52;;
15635;SDS011;7917;50.818;6.972;2023-06-22T04:25:05;10.82;;;8.43;;
15635;SDS011;7917;50.818;6.972;2023-06-22T04:27:33;11.68;;;8.38;;
15635;SDS011;7917;50.818;6.972;2023-06-22T04:30:02;10.88;;;8.60;;
15635;SDS011;7917;50.818;6.972;2023-06-22T04:32:31;11.20;;;8.30;;
15635;SDS011;7917;50.818;6.972;2023-06-22T04:34:57;9.68;;;8.65;;
15635;SDS011;7917;50.818;6.972;2023-06-22T04:37:25;9.93;;;8.90;;
15635;SDS011;7917;50.818;6.972;2023-06-22T04:39:52;11.30;;;9.68;;
15635;SDS011;7917;50.818;6.972;2023-06-22T04:42:19;10.98;;;9.85;;
15635;SDS011;7917;50.818;6.972;2023-06-22T04:44:46;12.75;;;9.52;;
15635;SDS011;7917;50.818;6.972;2023-06-22T04:47:13;10.75;;;9.65;;
15635;SDS011;7917;50.818;6.972;2023-06-22T04:49:40;12.27;;;9.57;;
15635;SDS011;7917;50.818;6.972;2023-06-22T04:52:08;10.77;;;9.77;;
15635;SDS011;7917;50.818;6.972;2023-06-22T04:54:37;13.02;;;9.77;;
15635;SDS011;7917;50.818;6.972;2023-06-22T04:57:06;11.27;;;10.18;;
15635;SDS011;7917;50.818;6.972;2023-06-22T04:59:35;14.40;;;9.73;;
15635;SDS011;7917;50.818;6.972;2023-06-22T05:02:04;15.90;;;9.40;;
15635;SDS011;7917;50.818;6.972;2023-06-22T05:04:31;13.63;;;9.30;;
15635;SDS011;7917;50.818;6.972;2023-06-22T05:06:59;16.02;;;9.57;;
15635;SDS011;7917;50.818;6.972;2023-06-22T05:09:26;18.05;;;10.68;;
15635;SDS011;7917;50.818;6.972;2023-06-22T05:11:53;15.77;;;10.07;;
15635;SDS011;7917;50.818;6.972;2023-06-22T05:14:19;17.05;;;10.27;;
15635;SDS011;7917;50.818;6.972;2023-06-22T05:16:46;12.02;;;9.50;;
15635;SDS011;7917;50.818;6.972;2023-06-22T05:19:14;17.10;;;9.75;;
15635;SDS011;7917;50.818;6.972;2023-06-22T05:21:41;12.55;;;10.00;;
15635;SDS011;7917;50.818;6.972;2023-06-22T05:24:08;13.50;;;10.25;;
15635;SDS011;7917;50.818;6.972;2023-06-22T05:26:35;19.27;;;9.50;;
15635;SDS011;7917;50.818;6.972;2023-06-22T05:29:02;15.82;;;9.35;;
15635;SDS011;7917;50.818;6.972;2023-06-22T05:31:32;18.15;;;9.52;;
15635;SDS011;7917;50.818;6.972;2023-06-22T05:33:59;11.73;;;9.30;;
15635;SDS011;7917;50.818;6.972;2023-06-22T05:36:26;17.77;;;10.20;;
15635;SDS011;7917;50.818;6.972;2023-06-22T05:38:53;18.88;;;9.98;;
15635;SDS011;7917;50.818;6.972;2023-06-22T05:41:23;15.88;;;10.52;;
15635;SDS011;7917;50.818;6.972;2023-06-22T05:43:49;16.00;;;10.43;;
15635;SDS011;7917;50.818;6.972;2023-06-22T05:46:16;14.88;;;10.05;;
15635;SDS011;7917;50.818;6.972;2023-06-22T05:48:43;15.27;;;10.20;;
15635;SDS011;7917;50.818;6.972;2023-06-22T05:51:10;13.55;;;9.98;;
15635;SDS011;7917;50.818;6.972;2023-06-22T05:53:37;14.32;;;10.98;;
15635;SDS011;7917;50.818;6.972;2023-06-22T05:56:03;13.93;;;10.40;;
15635;SDS011;7917;50.818;6.972;2023-06-22T05:58:31;12.10;;;10.77;;
15635;SDS011;7917;50.818;6.972;2023-06-22T06:00:58;14.70;;;10.98;;
15635;SDS011;7917;50.818;6.972;2023-06-22T06:03:25;12.13;;;10.90;;
15635;SDS011;7917;50.818;6.972;2023-06-22T06:05:53;16.13;;;11.77;;
15635;SDS011;7917;50.818;6.972;2023-06-22T06:08:21;15.88;;;11.38;;
15635;SDS011;7917;50.818;6.972;2023-06-22T06:10:48;11.93;;;10.73;;
15635;SDS011;7917;50.818;6.972;2023-06-22T06:13:15;18.42;;;10.82;;
15635;SDS011;7917;50.818;6.972;2023-06-22T06:15:43;12.90;;;11.15;;
15635;SDS011;7917;50.818;6.972;2023-06-22T06:18:09;15.50;;;10.57;;
15635;SDS011;7917;50.818;6.972;2023-06-22T06:20:36;12.40;;;10.60;;
15635;SDS011;7917;50.818;6.972;2023-06-22T06:23:03;11.52;;;9.52;;
15635;SDS011;7917;50.818;6.972;2023-06-22T06:25:30;12.38;;;9.55;;
15635;SDS011;7917;50.818;6.972;2023-06-22T06:27:57;14.70;;;11.02;;
15635;SDS011;7917;50.818;6.972;2023-06-22T06:30:24;12.82;;;10.50;;
15635;SDS011;7917;50.818;6.972;2023-06-22T06:32:51;14.15;;;10.25;;
15635;SDS011;7917;50.818;6.972;2023-06-22T06:35:21;12.68;;;10.43;;
15635;SDS011;7917;50.818;6.972;2023-06-22T06:37:49;12.38;;;10.02;;
15635;SDS011;7917;50.818;6.972;2023-06-22T06:40:16;14.43;;;9.85;;
15635;SDS011;7917;50.818;6.972;2023-06-22T06:42:44;14.02;;;9.70;;
15635;SDS011;7917;50.818;6.972;2023-06-22T06:45:14;11.55;;;10.40;;
15635;SDS011;7917;50.818;6.972;2023-06-22T06:47:42;14.73;;;10.23;;
15635;SDS011;7917;50.818;6.972;2023-06-22T06:50:10;13.45;;;9.90;;
15635;SDS011;7917;50.818;6.972;2023-06-22T06:52:37;14.48;;;9.82;;
15635;SDS011;7917;50.818;6.972;2023-06-22T06:55:04;10.77;;;9.32;;
15635;SDS011;7917;50.818;6.972;2023-06-22T06:57:37;13.95;;;9.38;;
15635;SDS011;7917;50.818;6.972;2023-06-22T07:00:04;10.43;;;9.32;;
15635;SDS011;7917;50.818;6.972;2023-06-22T07:02:34;12.20;;;8.80;;
15635;SDS011;7917;50.818;6.972;2023-06-22T07:05:01;12.77;;;9.40;;
15635;SDS011;7917;50.818;6.972;2023-06-22T07:07:30;10.63;;;9.00;;
15635;SDS011;7917;50.818;6.972;2023-06-22T07:09:57;11.40;;;8.88;;
15635;SDS011;7917;50.818;6.972;2023-06-22T07:12:24;10.98;;;9.52;;
15635;SDS011;7917;50.818;6.972;2023-06-22T07:14:51;11.88;;;9.32;;
15635;SDS011;7917;50.818;6.972;2023-06-22T07:17:18;10.30;;;8.30;;
15635;SDS011;7917;50.818;6.972;2023-06-22T07:19:45;10.35;;;9.25;;
15635;SDS011;7917;50.818;6.972;2023-06-22T07:22:12;9.57;;;8.43;;
15635;SDS011;7917;50.818;6.972;2023-06-22T07:24:40;9.10;;;8.00;;
15635;SDS011;7917;50.818;6.972;2023-06-22T07:27:07;9.75;;;8.25;;
15635;SDS011;7917;50.818;6.972;2023-06-22T07:29:36;9.80;;;8.80;;
15635;SDS011;7917;50.818;6.972;2023-06-22T07:32:05;11.48;;;7.75;;
15635;SDS011;7917;50.818;6.972;2023-06-22T07:34:32;9.70;;;8.70;;
15635;SDS011;7917;50.818;6.972;2023-06-22T07:36:59;8.85;;;7.95;;
15635;SDS011;7917;50.818;6.972;2023-06-22T07:39:26;14.15;;;8.07;;
15635;SDS011;7917;50.818;6.972;2023-06-22T07:41:54;8.85;;;7.78;;
15635;SDS011;7917;50.818;6.972;2023-06-22T07:44:21;10.40;;;7.88;;
15635;SDS011;7917;50.818;6.972;2023-06-22T07:46:48;12.82;;;8.90;;
15635;SDS011;7917;50.818;6.972;2023-06-22T07:49:15;9.10;;;8.13;;
15635;SDS011;7917;50.818;6.972;2023-06-22T07:51:43;9.30;;;7.95;;
15635;SDS011;7917;50.818;6.972;2023-06-22T07:54:10;8.82;;;7.65;;
15635;SDS011;7917;50.818;6.972;2023-06-22T07:56:36;9.05;;;7.30;;
15635;SDS011;7917;50.818;6.972;2023-06-22T07:59:04;8.15;;;7.35;;
15635;SDS011;7917;50.818;6.972;2023-06-22T08:01:34;9.35;;;7.70;;
15635;SDS011;7917;50.818;6.972;2023-06-22T08:04:02;7.72;;;7.03;;
15635;SDS011;7917;50.818;6.972;2023-06-22T08:06:31;9.23;;;7.88;;
15635;SDS011;7917;50.818;6.972;2023-06-22T08:08:58;8.43;;;7.20;;
15635;SDS011;7917;50.818;6.972;2023-06-22T08:11:26;7.63;;;6.72;;
15635;SDS011;7917;50.818;6.972;2023-06-22T08:13:53;8.15;;;7.35;;
15635;SDS011;7917;50.818;6.972;2023-06-22T08:16:24;8.85;;;7.03;;
15635;SDS011;7917;50.818;6.972;2023-06-22T08:18:51;8.30;;;7.50;;
15635;SDS011;7917;50.818;6.972;2023-06-22T08:21:18;7.78;;;7.07;;
15635;SDS011;7917;50.818;6.972;2023-06-22T08:23:45;9.52;;;7.68;;
15635;SDS011;7917;50.818;6.972;2023-06-22T08:26:12;9.15;;;8.35;;
15635;SDS011;7917;50.818;6.972;2023-06-22T08:28:40;8.88;;;7.93;;
15635;SDS011;7917;50.818;6.972;2023-06-22T08:31:08;8.80;;;7.75;;
15635;SDS011;7917;50.818;6.972;2023-06-22T08:33:36;8.55;;;7.75;;
15635;SDS011;7917;50.818;6.972;2023-06-22T08:36:03;8.98;;;7.55;;
15635;SDS011;7917;50.818;6.972;2023-06-22T08:38:31;8.95;;;7.75;;
15635;SDS011;7917;50.818;6.972;2023-06-22T08:40:58;9.77;;;8.05;;
15635;SDS011;7917;50.818;6.972;2023-06-22T08:43:26;12.23;;;8.85;;
15635;SDS011;7917;50.818;6.972;2023-06-22T08:45:53;9.27;;;8.38;;
15635;SDS011;7917;50.818;6.972;2023-06-22T08:48:20;10.80;;;9.10;;
15635;SDS011;7917;50.818;6.972;2023-06-22T08:50:48;9.07;;;8.27;;
15635;SDS011;7917;50.818;6.972;2023-06-22T08:53:15;9.70;;;8.40;;
15635;SDS011;7917;50.818;6.972;2023-06-22T08:55:42;9.00;;;8.10;;
15635;SDS011;7917;50.818;6.972;2023-06-22T08:58:09;9.80;;;8.38;;
15635;SDS011;7917;50.818;6.972;2023-06-22T09:00:36;9.27;;;7.82;;
15635;SDS011;7917;50.818;6.972;2023-06-22T09:03:03;9.13;;;8.23;;
15635;SDS011;7917;50.818;6.972;2023-06-22T09:05:30;10.68;;;8.25;;
15635;SDS011;7917;50.818;6.972;2023-06-22T09:07:58;9.07;;;8.18;;
15635;SDS011;7917;50.818;6.972;2023-06-22T09:10:25;11.38;;;7.72;;
15635;SDS011;7917;50.818;6.972;2023-06-22T09:12:52;9.65;;;7.65;;
15635;SDS011;7917;50.818;6.972;2023-06-22T09:15:19;9.35;;;8.35;;
15635;SDS011;7917;50.818;6.972;2023-06-22T09:17:47;11.50;;;8.38;;
15635;SDS011;7917;50.818;6.972;2023-06-22T09:20:14;9.20;;;7.85;;
15635;SDS011;7917;50.818;6.972;2023-06-22T09:22:41;13.20;;;7.65;;
15635;SDS011;7917;50.818;6.972;2023-06-22T09:25:09;9.15;;;7.57;;
15635;SDS011;7917;50.818;6.972;2023-06-22T09:27:39;10.52;;;8.35;;
15635;SDS011;7917;50.818;6.972;2023-06-22T09:30:06;10.07;;;8.10;;
15635;SDS011;7917;50.818;6.972;2023-06-22T09:32:34;9.40;;;7.72;;
15635;SDS011;7917;50.818;6.972;2023-06-22T09:35:01;8.00;;;7.30;;
15635;SDS011;7917;50.818;6.972;2023-06-22T09:37:31;8.93;;;7.72;;
15635;SDS011;7917;50.818;6.972;2023-06-22T09:39:58;8.85;;;7.95;;
15635;SDS011;7917;50.818;6.972;2023-06-22T09:42:29;9.52;;;8.15;;
15635;SDS011;7917;50.818;6.972;2023-06-22T09:44:56;8.55;;;7.75;;
15635;SDS011;7917;50.818;6.972;2023-06-22T09:47:23;8.38;;;7.57;;
15635;SDS011;7917;50.818;6.972;2023-06-22T09:49:50;10.70;;;7.70;;
15635;SDS011;7917;50.818;6.972;2023-06-22T09:52:17;12.57;;;7.75;;
15635;SDS011;7917;50.818;6.972;2023-06-22T09:54:44;9.27;;;8.23;;
15635;SDS011;7917;50.818;6.972;2023-06-22T09:57:11;11.32;;;8.10;;
15635;SDS011;7917;50.818;6.972;2023-06-22T09:59:39;9.18;;;8.27;;
15635;SDS011;7917;50.818;6.972;2023-06-22T10:02:06;9.27;;;8.30;;
15635;SDS011;7917;50.818;6.972;2023-06-22T10:04:33;9.40;;;8.40;;
15635;SDS011;7917;50.818;6.972;2023-06-22T10:07:00;10.15;;;8.63;;
15635;SDS011;7917;50.818;6.972;2023-06-22T10:09:27;10.45;;;8.40;;
15635;SDS011;7917;50.818;6.972;2023-06-22T10:11:54;9.70;;;8.05;;
15635;SDS011;7917;50.818;6.972;2023-06-22T10:14:21;10.40;;;8.80;;
15635;SDS011;7917;50.818;6.972;2023-06-22T10:16:51;10.35;;;8.48;;
15635;SDS011;7917;50.818;6.972;2023-06-22T10:19:18;9.35;;;8.43;;
15635;SDS011;7917;50.818;6.972;2023-06-22T10:21:45;10.23;;;9.15;;
15635;SDS011;7917;50.818;6.972;2023-06-22T10:24:12;13.32;;;9.25;;
15635;SDS011;7917;50.818;6.972;2023-06-22T10:26:39;10.60;;;9.60;;
15635;SDS011;7917;50.818;6.972;2023-06-22T10:29:06;13.93;;;9.38;;
15635;SDS011;7917;50.818;6.972;2023-06-22T10:31:33;11.40;;;9.82;;
15635;SDS011;7917;50.818;6.972;2023-06-22T10:34:01;13.18;;;9.95;;
15635;SDS011;7917;50.818;6.972;2023-06-22T10:36:28;11.15;;;9.68;;
15635;SDS011;7917;50.818;6.972;2023-06-22T10:38:55;11.80;;;10.57;;
15635;SDS011;7917;50.818;6.972;2023-06-22T10:41:24;11.50;;;10.40;;
15635;SDS011;7917;50.818;6.972;2023-06-22T10:43:51;14.38;;;10.93;;
15635;SDS011;7917;50.818;6.972;2023-06-22T10:46:19;14.27;;;11.70;;
15635;SDS011;7917;50.818;6.972;2023-06-22T10:48:46;14.23;;;12.73;;
15635;SDS011;7917;50.818;6.972;2023-06-22T10:51:14;13.02;;;11.50;;
15635;SDS011;7917;50.818;6.972;2023-06-22T10:53:40;15.10;;;12.90;;
15635;SDS011;7917;50.818;6.972;2023-06-22T10:56:08;26.42;;;15.10;;
15635;SDS011;7917;50.818;6.972;2023-06-22T10:58:35;20.15;;;15.23;;
15635;SDS011;7917;50.818;6.972;2023-06-22T11:01:02;21.48;;;15.73;;
15635;SDS011;7917;50.818;6.972;2023-06-22T11:03:32;24.27;;;15.65;;
15635;SDS011;7917;50.818;6.972;2023-06-22T11:06:02;22.30;;;16.17;;
15635;SDS011;7917;50.818;6.972;2023-06-22T11:08:30;23.55;;;18.25;;
15635;SDS011;7917;50.818;6.972;2023-06-22T11:10:57;23.67;;;18.23;;
15635;SDS011;7917;50.818;6.972;2023-06-22T11:13:24;23.95;;;17.45;;
15635;SDS011;7917;50.818;6.972;2023-06-22T11:15:51;18.67;;;13.13;;
15635;SDS011;7917;50.818;6.972;2023-06-22T11:18:19;14.90;;;10.13;;
15635;SDS011;7917;50.818;6.972;2023-06-22T11:20:45;13.00;;;8.80;;
15635;SDS011;7917;50.818;6.972;2023-06-22T11:23:14;9.98;;;7.70;;
15635;SDS011;7917;50.818;6.972;2023-06-22T11:25:43;15.82;;;8.35;;
15635;SDS011;7917;50.818;6.972;2023-06-22T11:28:11;14.02;;;7.85;;
15635;SDS011;7917;50.818;6.972;2023-06-22T11:30:38;8.95;;;7.20;;
15635;SDS011;7917;50.818;6.972;2023-06-22T11:33:07;9.40;;;7.38;;
15635;SDS011;7917;50.818;6.972;2023-06-22T11:35:34;11.65;;;9.77;;
15635;SDS011;7917;50.818;6.972;2023-06-22T11:38:01;13.32;;;11.20;;
15635;SDS011;7917;50.818;6.972;2023-06-22T11:40:29;15.35;;;13.50;;
15635;SDS011;7917;50.818;6.972;2023-06-22T11:42:57;14.80;;;12.00;;
15635;SDS011;7917;50.818;6.972;2023-06-22T11:45:24;16.30;;;13.05;;
15635;SDS011;7917;50.818;6.972;2023-06-22T11:47:51;16.30;;;12.57;;
15635;SDS011;7917;50.818;6.972;2023-06-22T11:50:18;15.57;;;12.07;;
15635;SDS011;7917;50.818;6.972;2023-06-22T11:52:46;15.20;;;13.60;;
15635;SDS011;7917;50.818;6.972;2023-06-22T12:01:37;18.02;;;13.18;;
15635;SDS011;7917;50.818;6.972;2023-06-22T12:04:04;19.83;;;14.27;;
15635;SDS011;7917;50.818;6.972;2023-06-22T12:06:31;16.08;;;11.10;;
15635;SDS011;7917;50.818;6.972;2023-06-22T12:09:00;14.52;;;12.63;;
15635;SDS011;7917;50.818;6.972;2023-06-22T12:11:30;15.23;;;11.75;;
15635;SDS011;7917;50.818;6.972;2023-06-22T12:13:57;13.10;;;11.90;;
15635;SDS011;7917;50.818;6.972;2023-06-22T12:16:27;12.55;;;11.25;;
15635;SDS011;7917;50.818;6.972;2023-06-22T12:18:55;12.93;;;11.52;;
15635;SDS011;7917;50.818;6.972;2023-06-22T12:21:22;12.07;;;10.77;;
15635;SDS011;7917;50.818;6.972;2023-06-22T12:23:49;13.48;;;12.07;;
15635;SDS011;7917;50.818;6.972;2023-06-22T12:26:16;15.27;;;12.45;;
15635;SDS011;7917;50.818;6.972;2023-06-22T12:28:43;15.88;;;12.70;;
15635;SDS011;7917;50.818;6.972;2023-06-22T12:31:10;14.23;;;12.60;;
15635;SDS011;7917;50.818;6.972;2023-06-22T12:33:40;14.82;;;13.07;;
15635;SDS011;7917;50.818;6.972;2023-06-22T12:36:07;14.63;;;13.13;;
15635;SDS011;7917;50.818;6.972;2023-06-22T12:38:35;15.35;;;13.75;;
15635;SDS011;7917;50.818;6.972;2023-06-22T12:41:02;13.40;;;11.88;;
15635;SDS011;7917;50.818;6.972;2023-06-22T12:43:29;13.77;;;11.80;;
15635;SDS011;7917;50.818;6.972;2023-06-22T12:45:56;15.02;;;12.25;;
15635;SDS011;7917;50.818;6.972;2023-06-22T12:48:25;16.05;;;12.23;;
15635;SDS011;7917;50.818;6.972;2023-06-22T12:50:54;13.73;;;12.52;;
15635;SDS011;7917;50.818;6.972;2023-06-22T12:53:21;14.25;;;12.43;;
15635;SDS011;7917;50.818;6.972;2023-06-22T12:55:49;15.55;;;13.95;;
15635;SDS011;7917;50.818;6.972;2023-06-22T12:58:16;14.80;;;13.40;;
15635;SDS011;7917;50.818;6.972;2023-06-22T13:00:43;16.48;;;14.45;;
15635;SDS011;7917;50.818;6.972;2023-06-22T13:03:10;15.00;;;13.30;;
15635;SDS011;7917;50.818;6.972;2023-06-22T13:05:37;14.90;;;13.43;;
15635;SDS011;7917;50.818;6.972;2023-06-22T13:08:05;18.33;;;14.25;;
15635;SDS011;7917;50.818;6.972;2023-06-22T13:10:33;15.32;;;12.82;;
15635;SDS011;7917;50.818;6.972;2023-06-22T13:13:00;13.07;;;11.80;;
15635;SDS011;7917;50.818;6.972;2023-06-22T13:15:27;15.60;;;12.88;;
15635;SDS011;7917;50.818;6.972;2023-06-22T13:17:55;15.07;;;13.55;;
15635;SDS011;7917;50.818;6.972;2023-06-22T13:20:22;15.60;;;12.88;;
15635;SDS011;7917;50.818;6.972;2023-06-22T13:22:49;17.55;;;12.88;;
15635;SDS011;7917;50.818;6.972;2023-06-22T13:25:17;12.95;;;11.63;;
15635;SDS011;7917;50.818;6.972;2023-06-22T13:27:47;13.18;;;11.68;;
15635;SDS011;7917;50.818;6.972;2023-06-22T13:30:14;17.60;;;11.63;;
15635;SDS011;7917;50.818;6.972;2023-06-22T13:32:42;13.43;;;11.98;;
15635;SDS011;7917;50.818;6.972;2023-06-22T13:35:09;12.70;;;11.35;;
15635;SDS011;7917;50.818;6.972;2023-06-22T13:37:42;15.40;;;11.35;;
15635;SDS011;7917;50.818;6.972;2023-06-22T13:40:09;11.18;;;10.10;;
15635;SDS011;7917;50.818;6.972;2023-06-22T13:42:37;10.40;;;9.30;;
15635;SDS011;7917;50.818;6.972;2023-06-22T13:45:04;9.40;;;8.43;;
15635;SDS011;7917;50.818;6.972;2023-06-22T13:47:32;9.40;;;8.45;;
15635;SDS011;7917;50.818;6.972;2023-06-22T13:49:59;13.90;;;9.07;;
15635;SDS011;7917;50.818;6.972;2023-06-22T13:52:26;11.70;;;7.97;;
15635;SDS011;7917;50.818;6.972;2023-06-22T13:54:54;11.27;;;8.07;;
15635;SDS011;7917;50.818;6.972;2023-06-22T13:57:20;9.38;;;8.48;;
15635;SDS011;7917;50.818;6.972;2023-06-22T13:59:48;10.80;;;8.15;;
15635;SDS011;7917;50.818;6.972;2023-06-22T14:02:15;12.13;;;8.57;;
15635;SDS011;7917;50.818;6.972;2023-06-22T14:04:42;10.95;;;9.80;;
15635;SDS011;7917;50.818;6.972;2023-06-22T14:07:10;9.77;;;8.80;;
15635;SDS011;7917;50.818;6.972;2023-06-22T14:09:37;10.23;;;9.23;;
15635;SDS011;7917;50.818;6.972;2023-06-22T14:12:04;9.88;;;8.43;;
15635;SDS011;7917;50.818;6.972;2023-06-22T14:14:32;10.77;;;9.70;;
15635;SDS011;7917;50.818;6.972;2023-06-22T14:17:00;9.93;;;8.75;;
15635;SDS011;7917;50.818;6.972;2023-06-22T14:19:28;11.40;;;9.35;;
15635;SDS011;7917;50.818;6.972;2023-06-22T14:21:55;13.07;;;9.40;;
15635;SDS011;7917;50.818;6.972;2023-06-22T14:24:22;11.73;;;9.90;;
15635;SDS011;7917;50.818;6.972;2023-06-22T14:26:50;13.50;;;9.60;;
15635;SDS011;7917;50.818;6.972;2023-06-22T14:29:17;11.35;;;10.07;;
15635;SDS011;7917;50.818;6.972;2023-06-22T14:31:44;11.48;;;9.75;;
15635;SDS011;7917;50.818;6.972;2023-06-22T14:34:13;12.45;;;9.32;;
15635;SDS011;7917;50.818;6.972;2023-06-22T14:36:40;17.20;;;9.80;;
15635;SDS011;7917;50.818;6.972;2023-06-22T14:39:07;10.55;;;9.27;;
15635;SDS011;7917;50.818;6.972;2023-06-22T14:41:35;20.27;;;11.30;;
15635;SDS011;7917;50.818;6.972;2023-06-22T14:44:02;23.48;;;11.18;;
15635;SDS011;7917;50.818;6.972;2023-06-22T14:46:29;15.13;;;10.05;;
15635;SDS011;7917;50.818;6.972;2023-06-22T14:48:56;14.90;;;10.65;;
15635;SDS011;7917;50.818;6.972;2023-06-22T14:51:24;16.75;;;10.80;;
15635;SDS011;7917;50.818;6.972;2023-06-22T14:53:52;16.23;;;10.88;;
15635;SDS011;7917;50.818;6.972;2023-06-22T14:56:19;14.57;;;11.68;;
15635;SDS011;7917;50.818;6.972;2023-06-22T14:58:46;21.63;;;11.75;;
15635;SDS011;7917;50.818;6.972;2023-06-22T15:01:13;14.27;;;11.73;;
15635;SDS011;7917;50.818;6.972;2023-06-22T15:03:40;22.52;;;13.18;;